createdAt,value
2022-09-05T00:01:29.684Z,19.90
2022-09-05T00:04:21.323Z,19.90
2022-09-05T00:06:58.852Z,19.90
2022-09-05T00:09:51.675Z,19.80
2022-09-05T00:12:22.134Z,19.80
2022-09-05T00:15:17.834Z,19.80
2022-09-05T00:21:31.560Z,19.80
2022-09-05T00:24:19.487Z,19.70
2022-09-05T00:24:28.429Z,19.70
2022-09-05T00:27:05.814Z,19.60
2022-09-05T00:31:08.160Z,19.60
2022-09-05T00:33:16.828Z,19.60
2022-09-05T00:36:14.552Z,19.60
2022-09-05T00:38:52.630Z,19.50
2022-09-05T00:41:20.840Z,19.50
2022-09-05T00:43:53.235Z,19.50
2022-09-05T00:46:27.718Z,19.50
2022-09-05T00:49:16.734Z,19.40
2022-09-05T00:51:51.804Z,19.40
2022-09-05T00:54:49.441Z,19.40
2022-09-05T00:57:49.396Z,19.30
2022-09-05T01:00:19.763Z,19.30
2022-09-05T01:03:17.080Z,19.30
2022-09-05T01:06:10.385Z,19.30
2022-09-05T01:09:15.304Z,19.20
2022-09-05T01:11:57.620Z,19.30
2022-09-05T01:14:55.368Z,19.20
2022-09-05T01:17:43.964Z,19.20
2022-09-05T01:20:38.480Z,19.10
2022-09-05T01:23:31.229Z,19.10
2022-09-05T01:26:10.798Z,19.10
2022-09-05T01:29:16.063Z,19.10
2022-09-05T01:31:45.515Z,19.00
2022-09-05T01:34:22.903Z,19.00
2022-09-05T01:37:08.600Z,19.00
2022-09-05T01:40:15.980Z,19.00
2022-09-05T01:42:59.393Z,19.00
2022-09-05T01:45:47.149Z,18.90
2022-09-05T01:48:31.357Z,18.90
2022-09-05T01:51:28.610Z,18.90
2022-09-05T01:54:24.933Z,18.80
2022-09-05T01:57:09.099Z,18.80
2022-09-05T01:59:48.760Z,18.80
2022-09-05T02:02:48.956Z,18.70
2022-09-05T02:05:48.178Z,18.80
2022-09-05T02:08:35.009Z,18.70
2022-09-05T02:11:08.850Z,18.70
2022-09-05T02:14:00.619Z,18.70
2022-09-05T02:16:43.240Z,18.70
2022-09-05T02:19:20.591Z,18.60
2022-09-05T02:22:01.169Z,18.60
2022-09-05T02:24:38.174Z,18.60
2022-09-05T02:27:53.593Z,18.60
2022-09-05T02:30:11.896Z,18.60
2022-09-05T02:32:48.507Z,18.60
2022-09-05T02:35:26.875Z,18.60
2022-09-05T02:38:51.048Z,18.70
2022-09-05T02:45:14.650Z,18.70
2022-09-05T02:45:19.182Z,18.70
2022-09-05T02:46:51.117Z,18.70
2022-09-05T02:52:56.649Z,18.70
2022-09-05T02:57:30.073Z,18.70
2022-09-05T02:57:46.017Z,18.80
2022-09-05T02:58:53.247Z,18.70
2022-09-05T03:01:33.311Z,18.80
2022-09-05T03:04:15.603Z,18.80
2022-09-05T03:06:56.923Z,18.80
2022-09-05T03:09:38.911Z,18.70
2022-09-05T03:12:48.425Z,18.80
2022-09-05T03:15:45.771Z,18.70
2022-09-05T03:18:52.364Z,18.80
2022-09-05T03:21:52.446Z,18.70
2022-09-05T03:24:56.398Z,18.70
2022-09-05T03:28:09.150Z,18.70
2022-09-05T03:30:50.575Z,18.70
2022-09-05T03:33:51.938Z,18.70
2022-09-05T03:36:58.122Z,18.60
2022-09-05T03:40:15.410Z,18.60
2022-09-05T03:43:00.213Z,18.50
2022-09-05T03:46:03.940Z,18.50
2022-09-05T03:49:17.620Z,18.50
2022-09-05T03:57:08.812Z,18.40
2022-09-05T03:57:20.725Z,18.40
2022-09-05T03:58:55.449Z,18.40
2022-09-05T04:04:39.264Z,18.40
2022-09-05T04:08:20.760Z,18.30
2022-09-05T04:08:29.107Z,18.20
2022-09-05T04:10:22.438Z,18.20
2022-09-05T04:12:54.425Z,18.20
2022-09-05T04:15:32.050Z,18.10
2022-09-05T04:18:05.253Z,18.10
2022-09-05T04:20:40.903Z,18.10
2022-09-05T04:23:20.376Z,18.10
2022-09-05T04:26:11.719Z,18.10
2022-09-05T04:28:56.848Z,18.00
2022-09-05T04:31:37.434Z,18.00
2022-09-05T04:34:21.020Z,17.90
2022-09-05T04:37:01.249Z,17.90
2022-09-05T04:39:30.573Z,17.90
2022-09-05T04:42:10.926Z,17.90
2022-09-05T04:44:44.801Z,17.80
2022-09-05T04:47:19.267Z,17.80
2022-09-05T04:49:58.265Z,17.70
2022-09-05T04:52:56.032Z,17.70
2022-09-05T04:55:29.203Z,17.70
2022-09-05T04:58:05.346Z,17.70
2022-09-05T05:06:00.647Z,17.60
2022-09-05T05:06:13.724Z,17.70
2022-09-05T05:06:46.551Z,17.60
2022-09-05T05:09:21.842Z,17.60
2022-09-05T05:17:53.971Z,17.60
2022-09-05T05:18:01.445Z,17.60
2022-09-05T05:18:07.038Z,17.60
2022-09-05T05:20:45.657Z,17.60
2022-09-05T05:23:18.395Z,17.60
2022-09-05T05:25:51.608Z,17.70
2022-09-05T05:28:28.220Z,17.70
2022-09-05T05:31:01.925Z,17.70
2022-09-05T05:33:36.043Z,17.70
2022-09-05T05:36:07.348Z,17.70
2022-09-05T05:38:49.882Z,17.70
2022-09-05T05:41:25.875Z,17.80
2022-09-05T05:43:54.481Z,17.80
2022-09-05T05:46:31.814Z,17.80
2022-09-05T05:49:15.284Z,17.80
2022-09-05T05:52:02.535Z,17.90
2022-09-05T05:54:43.153Z,18.00
2022-09-05T05:57:32.949Z,18.00
2022-09-05T06:00:07.604Z,18.00
2022-09-05T06:03:34.596Z,18.10
2022-09-05T06:06:14.994Z,18.10
2022-09-05T06:14:48.505Z,18.20
2022-09-05T06:15:00.160Z,18.20
2022-09-05T06:16:09.801Z,18.30
2022-09-05T06:19:17.704Z,18.30
2022-09-05T06:22:16.827Z,18.40
2022-09-05T06:25:34.785Z,18.40
2022-09-05T06:28:30.609Z,18.40
2022-09-05T06:31:30.134Z,18.40
2022-09-05T06:34:32.967Z,18.40
2022-09-05T06:37:17.111Z,18.50
2022-09-05T06:40:06.161Z,18.50
2022-09-05T06:42:45.240Z,18.50
2022-09-05T06:45:35.249Z,18.60
2022-09-05T06:48:23.877Z,18.60
2022-09-05T06:51:24.904Z,18.60
2022-09-05T06:54:04.664Z,18.70
2022-09-05T06:57:03.470Z,18.70
2022-09-05T07:00:22.197Z,18.80
2022-09-05T07:03:18.345Z,18.90
2022-09-05T07:05:56.576Z,19.00
2022-09-05T07:08:35.362Z,19.00
2022-09-05T07:11:16.802Z,19.10
2022-09-05T07:14:00.423Z,19.10
2022-09-05T07:16:39.402Z,19.20
2022-09-05T07:19:27.155Z,19.20
2022-09-05T07:22:47.379Z,19.30
2022-09-05T07:25:21.308Z,19.30
2022-09-05T07:28:29.487Z,19.30
2022-09-05T07:30:50.605Z,19.30
2022-09-05T07:33:21.908Z,19.30
2022-09-05T07:35:52.574Z,19.30
2022-09-05T07:38:26.737Z,19.40
2022-09-05T07:41:22.687Z,19.40
2022-09-05T07:43:56.177Z,19.50
2022-09-05T07:46:27.925Z,19.50
2022-09-05T07:48:59.556Z,19.60
2022-09-05T07:57:10.687Z,19.70
2022-09-05T07:57:15.902Z,19.80
2022-09-05T07:57:30.031Z,20.00
2022-09-05T08:00:06.341Z,20.10
2022-09-05T08:02:47.054Z,20.30
2022-09-05T08:05:21.592Z,20.40
2022-09-05T08:08:09.799Z,20.50
2022-09-05T08:11:23.672Z,20.70
2022-09-05T08:14:40.585Z,20.80
2022-09-05T08:16:46.894Z,21.00
2022-09-05T08:19:41.387Z,21.10
2022-09-05T08:22:16.900Z,21.30
2022-09-05T08:24:55.356Z,21.40
2022-09-05T08:27:28.910Z,21.60
2022-09-05T08:30:26.987Z,21.70
2022-09-05T08:33:11.464Z,21.80
2022-09-05T08:35:46.502Z,22.00
2022-09-05T08:38:16.026Z,22.10
2022-09-05T08:40:51.792Z,22.30
2022-09-05T08:46:35.178Z,22.40
2022-09-05T08:46:46.925Z,22.50
2022-09-05T08:49:48.222Z,22.70
2022-09-05T08:52:28.103Z,22.80
2022-09-05T08:55:07.844Z,23.00
2022-09-05T08:58:03.958Z,23.10
2022-09-05T09:00:39.824Z,23.20
2022-09-05T09:03:18.383Z,23.30
2022-09-05T09:06:43.943Z,23.40
2022-09-05T09:09:41.412Z,23.60
2022-09-05T09:12:21.309Z,23.70
2022-09-05T09:14:58.921Z,23.80
2022-09-05T09:17:43.356Z,23.90
2022-09-05T09:20:22.107Z,24.10
2022-09-05T09:22:57.777Z,24.20
2022-09-05T09:25:33.944Z,24.30
2022-09-05T09:28:50.545Z,24.40
2022-09-05T09:31:54.942Z,24.60
2022-09-05T09:34:53.473Z,24.70
2022-09-05T09:37:54.350Z,24.90
2022-09-05T09:41:00.829Z,25.00
2022-09-05T09:43:44.265Z,25.20
2022-09-05T09:46:39.001Z,25.30
2022-09-05T09:49:29.035Z,25.50
2022-09-05T09:52:28.360Z,25.60
2022-09-05T09:55:48.424Z,25.80
2022-09-05T09:58:49.908Z,26.00
2022-09-05T10:01:40.097Z,26.20
2022-09-05T10:10:40.167Z,26.30
2022-09-05T10:11:09.342Z,26.40
2022-09-05T10:11:53.088Z,26.60
2022-09-05T10:14:49.868Z,26.70
2022-09-05T10:17:49.641Z,26.80
2022-09-05T10:20:53.905Z,27.00
2022-09-05T10:24:12.464Z,27.10
2022-09-05T10:27:26.484Z,27.20
2022-09-05T10:30:10.231Z,27.30
2022-09-05T10:35:13.894Z,27.60
2022-09-05T10:35:37.582Z,27.70
2022-09-05T10:38:12.358Z,27.80
2022-09-05T10:41:20.866Z,27.90
2022-09-05T10:43:42.949Z,27.90
2022-09-05T10:46:50.646Z,27.90
2022-09-05T10:49:16.736Z,27.90
2022-09-05T10:51:52.028Z,28.10
2022-09-05T10:54:40.768Z,28.20
2022-09-05T10:57:25.600Z,28.20
2022-09-05T11:02:20.025Z,28.30
2022-09-05T11:03:30.100Z,28.40
2022-09-05T11:06:08.848Z,28.50
2022-09-05T11:08:47.052Z,28.60
2022-09-05T11:11:28.375Z,28.60
2022-09-05T11:14:26.812Z,28.70
2022-09-05T11:17:10.120Z,28.70
2022-09-05T11:19:43.949Z,28.80
2022-09-05T11:22:23.893Z,28.90
2022-09-05T11:24:56.656Z,29.00
2022-09-05T11:27:32.817Z,29.10
2022-09-05T11:30:06.806Z,29.10
2022-09-05T11:38:30.604Z,29.10
2022-09-05T11:39:50.251Z,29.20
2022-09-05T11:39:50.488Z,29.20
2022-09-05T11:42:35.639Z,29.30
2022-09-05T11:45:38.108Z,29.20
2022-09-05T11:48:35.866Z,29.20
2022-09-05T11:51:33.825Z,29.20
2022-09-05T11:54:50.268Z,29.20
2022-09-05T11:57:43.333Z,29.20
2022-09-05T12:00:32.919Z,29.30
2022-09-05T12:03:38.515Z,29.30
2022-09-05T12:06:49.345Z,29.30
2022-09-05T12:09:27.979Z,29.40
2022-09-05T12:12:19.311Z,29.50
2022-09-05T12:15:12.905Z,29.50
2022-09-05T12:17:53.315Z,29.60
2022-09-05T12:20:43.114Z,29.50
2022-09-05T12:23:53.715Z,29.50
2022-09-05T12:27:44.804Z,29.50
2022-09-05T12:29:28.834Z,29.50
2022-09-05T12:36:08.279Z,29.40
2022-09-05T12:40:53.721Z,29.40
2022-09-05T12:41:35.674Z,29.30
2022-09-05T12:41:42.042Z,29.50
2022-09-05T12:44:40.285Z,29.20
2022-09-05T12:46:37.058Z,29.20
2022-09-05T12:49:10.295Z,29.20
2022-09-05T12:51:55.072Z,29.10
2022-09-05T12:54:34.619Z,29.10
2022-09-05T13:01:05.142Z,29.10
2022-09-05T13:03:02.457Z,29.20
2022-09-05T13:03:28.094Z,29.30
2022-09-05T13:05:55.259Z,29.40
2022-09-05T13:08:31.264Z,29.40
2022-09-05T13:14:52.606Z,29.30
2022-09-05T13:14:52.659Z,29.30
2022-09-05T13:16:48.138Z,29.40
2022-09-05T13:19:27.121Z,29.40
2022-09-05T13:21:58.386Z,29.50
2022-09-05T13:24:32.087Z,29.60
2022-09-05T13:27:07.217Z,29.60
2022-09-05T13:32:16.236Z,29.70
2022-09-05T13:38:07.908Z,29.90
2022-09-05T13:38:11.132Z,30.00
2022-09-05T13:38:48.258Z,30.20
2022-09-05T13:41:27.098Z,30.30
2022-09-05T13:44:00.473Z,30.30
2022-09-05T13:46:58.522Z,30.40
2022-09-05T13:49:33.244Z,30.50
2022-09-05T13:52:29.071Z,30.60
2022-09-05T13:55:12.075Z,30.70
2022-09-05T13:57:44.606Z,30.80
2022-09-05T14:00:54.318Z,30.90
2022-09-05T14:04:05.629Z,30.90
2022-09-05T14:10:28.951Z,30.80
2022-09-05T14:13:02.644Z,30.90
2022-09-05T14:15:40.108Z,31.10
2022-09-05T14:18:21.242Z,31.20
2022-09-05T14:21:13.770Z,31.30
2022-09-05T14:23:53.631Z,31.30
2022-09-05T14:26:28.700Z,31.30
2022-09-05T14:29:05.999Z,31.40
2022-09-05T14:37:41.384Z,31.50
2022-09-05T14:37:53.759Z,31.60
2022-09-05T14:38:09.577Z,31.60
2022-09-05T14:41:10.245Z,31.50
2022-09-05T14:44:06.866Z,31.50
2022-09-05T14:47:06.892Z,31.60
2022-09-05T14:49:59.858Z,31.50
2022-09-05T14:52:35.566Z,31.60
2022-09-05T15:02:41.176Z,31.80
2022-09-05T15:02:47.895Z,31.90
2022-09-05T15:06:37.415Z,32.10
2022-09-05T15:11:25.796Z,32.10
2022-09-05T15:12:27.763Z,32.20
2022-09-05T15:15:01.383Z,32.20
2022-09-05T15:17:32.284Z,32.30
2022-09-05T15:20:07.471Z,32.30
2022-09-05T15:22:41.886Z,32.40
2022-09-05T15:25:18.746Z,32.40
2022-09-05T15:27:47.712Z,32.40
2022-09-05T15:30:34.842Z,32.50
2022-09-05T15:33:25.822Z,32.40
2022-09-05T15:35:54.518Z,32.40
2022-09-05T15:38:25.340Z,32.40
2022-09-05T15:41:19.715Z,32.20
2022-09-05T15:43:59.701Z,32.00
2022-09-05T15:46:39.294Z,32.00
2022-09-05T15:49:25.626Z,32.00
2022-09-05T15:51:58.787Z,31.90
2022-09-05T15:54:38.827Z,31.70
2022-09-05T15:57:17.337Z,31.60
2022-09-05T15:59:53.213Z,31.40
2022-09-05T16:02:26.385Z,31.30
2022-09-05T16:10:29.674Z,31.20
2022-09-05T16:10:48.604Z,31.10
2022-09-05T16:11:07.036Z,31.00
2022-09-05T16:13:53.200Z,30.90
2022-09-05T16:23:20.494Z,30.80
2022-09-05T16:23:25.847Z,30.60
2022-09-05T16:23:32.504Z,30.70
2022-09-05T16:25:09.912Z,30.60
2022-09-05T16:27:53.490Z,30.60
2022-09-05T16:30:27.761Z,30.60
2022-09-05T16:33:02.144Z,30.60
2022-09-05T16:35:33.128Z,30.60
2022-09-05T16:38:13.108Z,30.50
2022-09-05T16:40:44.034Z,30.40
2022-09-05T16:43:20.416Z,30.30
2022-09-05T16:45:55.428Z,30.30
2022-09-05T16:48:38.237Z,30.20
2022-09-05T16:51:18.017Z,30.10
2022-09-05T16:54:10.876Z,30.00
2022-09-05T16:56:43.879Z,29.80
2022-09-05T16:59:17.680Z,29.70
2022-09-05T17:02:07.989Z,29.60
2022-09-05T17:05:05.146Z,29.50
2022-09-05T17:07:50.151Z,29.30
2022-09-05T17:10:24.293Z,29.30
2022-09-05T17:12:53.134Z,29.10
2022-09-05T17:15:26.183Z,29.00
2022-09-05T17:18:22.008Z,28.90
2022-09-05T17:20:54.837Z,28.80
2022-09-05T17:29:25.188Z,28.70
2022-09-05T17:29:36.535Z,28.60
2022-09-05T17:32:48.832Z,28.30
2022-09-05T17:35:43.288Z,28.10
2022-09-05T17:38:40.812Z,28.00
2022-09-05T17:41:38.302Z,27.90
2022-09-05T17:44:17.996Z,27.80
2022-09-05T17:46:58.814Z,27.70
2022-09-05T17:49:44.988Z,27.60
2022-09-05T17:52:23.924Z,27.40
2022-09-05T17:54:54.633Z,27.40
2022-09-05T17:57:41.442Z,27.30
2022-09-05T18:01:00.400Z,27.10
2022-09-05T18:04:16.945Z,27.00
2022-09-05T18:07:00.484Z,26.90
2022-09-05T18:10:12.985Z,26.70
2022-09-05T18:16:10.654Z,26.50
2022-09-05T18:19:32.547Z,26.40
2022-09-05T18:21:50.248Z,26.40
2022-09-05T18:24:33.712Z,26.30
2022-09-05T18:28:03.102Z,26.20
2022-09-05T18:30:12.755Z,26.10
2022-09-05T18:32:45.512Z,26.00
2022-09-05T18:35:26.454Z,26.00
2022-09-05T18:38:51.452Z,25.90
2022-09-05T18:41:22.138Z,25.80
2022-09-05T18:44:13.244Z,25.70
2022-09-05T18:46:51.709Z,25.60
2022-09-05T18:50:23.279Z,25.50
2022-09-05T18:52:23.827Z,25.40
2022-09-05T18:55:46.328Z,25.30
2022-09-05T18:57:51.366Z,25.20
2022-09-05T19:00:35.274Z,25.10
2022-09-05T19:03:19.026Z,25.10
2022-09-05T19:05:51.138Z,25.00
2022-09-05T19:08:31.930Z,24.90
2022-09-05T19:11:28.519Z,24.90
2022-09-05T19:14:25.553Z,24.90
2022-09-05T19:16:50.767Z,24.80
2022-09-05T19:19:24.574Z,24.80
2022-09-05T19:22:14.587Z,24.80
2022-09-05T19:24:49.047Z,24.80
2022-09-05T19:28:57.074Z,24.70
2022-09-05T19:36:47.282Z,24.70
2022-09-05T19:37:04.961Z,24.70
2022-09-05T19:37:06.616Z,24.70
2022-09-05T19:41:30.058Z,24.60
2022-09-05T19:47:45.333Z,24.60
2022-09-05T19:47:51.862Z,24.60
2022-09-05T19:48:04.111Z,24.60
2022-09-05T19:50:34.486Z,24.60
2022-09-05T19:53:08.322Z,24.60
2022-09-05T19:55:38.400Z,24.60
2022-09-05T19:58:20.286Z,24.50
2022-09-05T20:01:02.628Z,24.50
2022-09-05T20:03:38.177Z,24.50
2022-09-05T20:06:30.323Z,24.50
2022-09-05T20:09:16.596Z,24.50
2022-09-05T20:11:49.500Z,24.50
2022-09-05T20:14:20.732Z,24.50
2022-09-05T20:16:51.800Z,24.50
2022-09-05T20:19:31.361Z,24.50
2022-09-05T20:22:48.035Z,24.50
2022-09-05T20:24:55.421Z,24.50
2022-09-05T20:27:28.295Z,24.50
2022-09-05T20:29:59.761Z,24.50
2022-09-05T20:32:39.514Z,24.50
2022-09-05T20:41:32.140Z,24.50
2022-09-05T20:43:21.348Z,24.50
2022-09-05T20:43:30.260Z,24.50
2022-09-05T20:44:00.181Z,24.40
2022-09-05T20:49:00.848Z,24.40
2022-09-05T20:54:13.817Z,24.40
2022-09-05T20:54:22.574Z,24.40
2022-09-05T20:55:38.433Z,24.40
2022-09-05T20:58:11.762Z,24.40
2022-09-05T21:01:19.559Z,24.30
2022-09-05T21:03:36.718Z,24.30
2022-09-05T21:06:22.218Z,24.30
2022-09-05T21:08:55.885Z,24.30
2022-09-05T21:11:33.689Z,24.20
2022-09-05T21:14:06.143Z,24.20
2022-09-05T21:16:38.738Z,24.20
2022-09-05T21:19:07.765Z,24.20
2022-09-05T21:21:39.739Z,24.10
2022-09-05T21:24:17.864Z,24.10
2022-09-05T21:26:49.494Z,24.10
2022-09-05T21:29:27.297Z,24.00
2022-09-05T21:32:10.876Z,24.00
2022-09-05T21:34:45.015Z,24.00
2022-09-05T21:37:16.598Z,24.00
2022-09-05T21:39:58.357Z,23.90
2022-09-05T21:47:35.191Z,23.90
2022-09-05T21:47:47.784Z,23.90
2022-09-05T21:48:15.166Z,23.80
2022-09-05T21:50:46.851Z,23.80
2022-09-05T21:55:09.342Z,23.80
2022-09-05T21:59:24.724Z,23.80
2022-09-05T21:59:28.692Z,23.70
2022-09-05T22:01:58.611Z,23.70
2022-09-05T22:04:26.982Z,23.60
2022-09-05T22:06:57.618Z,23.60
2022-09-05T22:09:27.369Z,23.60
2022-09-05T22:11:56.488Z,23.60
2022-09-05T22:14:26.278Z,23.50
2022-09-05T22:16:56.876Z,23.50
2022-09-05T22:19:37.062Z,23.50
2022-09-05T22:22:16.444Z,23.40
2022-09-05T22:24:52.414Z,23.40
2022-09-05T22:27:21.974Z,23.40
2022-09-05T22:29:51.811Z,23.30
2022-09-05T22:32:34.085Z,23.30
2022-09-05T22:35:27.920Z,23.30
2022-09-05T22:38:01.764Z,23.20
2022-09-05T22:40:32.345Z,23.20
2022-09-05T22:43:05.561Z,23.20
2022-09-05T22:45:35.791Z,23.10
2022-09-05T22:48:09.123Z,23.10
2022-09-05T22:50:37.993Z,23.10
2022-09-05T22:53:08.601Z,23.00
2022-09-05T22:55:39.787Z,23.10
2022-09-05T22:58:13.579Z,23.00
2022-09-05T23:00:45.282Z,23.00
2022-09-05T23:03:13.581Z,23.00
2022-09-05T23:05:41.712Z,23.00
2022-09-05T23:08:12.613Z,23.00
2022-09-05T23:10:42.144Z,23.00
2022-09-05T23:13:11.560Z,23.00
2022-09-05T23:15:40.110Z,23.00
2022-09-05T23:18:08.369Z,23.00
2022-09-05T23:20:36.630Z,23.00
2022-09-05T23:23:08.674Z,23.00
2022-09-05T23:25:39.102Z,23.00
2022-09-05T23:28:11.500Z,23.00
2022-09-05T23:30:40.603Z,22.90
2022-09-05T23:33:11.735Z,22.90
2022-09-05T23:35:39.963Z,22.90
2022-09-05T23:38:11.171Z,22.90
2022-09-05T23:40:39.733Z,22.90
2022-09-05T23:43:07.955Z,22.90
2022-09-05T23:45:40.033Z,22.90
2022-09-05T23:48:10.777Z,22.80
2022-09-05T23:50:38.949Z,22.80
2022-09-05T23:53:09.676Z,22.80
2022-09-05T23:55:37.855Z,22.80
2022-09-05T23:58:09.403Z,22.80
